sensor_id;sensor_type;location;lat;lon;timestamp;P1;durP1;ratioP1;P2;durP2;ratioP2
26858;SDS011;14429;48.346;16.338;2023-08-06T00:00:26;0.43;;;0.40;;
26858;SDS011;14429;48.346;16.338;2023-08-06T00:02:51;0.30;;;0.30;;
26858;SDS011;14429;48.346;16.338;2023-08-06T00:05:18;0.68;;;0.50;;
26858;SDS011;14429;48.346;16.338;2023-08-06T00:07:43;0.20;;;0.20;;
26858;SDS011;14429;48.346;16.338;2023-08-06T00:10:09;0.68;;;0.40;;
26858;SDS011;14429;48.346;16.338;2023-08-06T00:12:34;0.47;;;0.28;;
26858;SDS011;14429;48.346;16.338;2023-08-06T00:15:00;0.60;;;0.43;;
26858;SDS011;14429;48.346;16.338;2023-08-06T00:17:25;0.20;;;0.20;;
26858;SDS011;14429;48.346;16.338;2023-08-06T00:19:51;0.30;;;0.30;;
26858;SDS011;14429;48.346;16.338;2023-08-06T00:22:17;0.80;;;0.60;;
26858;SDS011;14429;48.346;16.338;2023-08-06T00:24:43;0.52;;;0.40;;
26858;SDS011;14429;48.346;16.338;2023-08-06T00:27:08;0.65;;;0.60;;
26858;SDS011;14429;48.346;16.338;2023-08-06T00:29:33;0.40;;;0.40;;
26858;SDS011;14429;48.346;16.338;2023-08-06T00:31:59;0.80;;;0.55;;
26858;SDS011;14429;48.346;16.338;2023-08-06T00:34:24;0.30;;;0.30;;
26858;SDS011;14429;48.346;16.338;2023-08-06T00:36:50;0.35;;;0.35;;
26858;SDS011;14429;48.346;16.338;2023-08-06T00:39:17;0.50;;;0.50;;
26858;SDS011;14429;48.346;16.338;2023-08-06T00:41:42;2.22;;;0.28;;
26858;SDS011;14429;48.346;16.338;2023-08-06T00:44:07;0.28;;;0.28;;
26858;SDS011;14429;48.346;16.338;2023-08-06T00:46:33;0.57;;;0.30;;
26858;SDS011;14429;48.346;16.338;2023-08-06T00:48:58;0.47;;;0.25;;
26858;SDS011;14429;48.346;16.338;2023-08-06T00:51:25;0.40;;;0.40;;
26858;SDS011;14429;48.346;16.338;2023-08-06T00:53:50;0.32;;;0.32;;
26858;SDS011;14429;48.346;16.338;2023-08-06T00:56:18;0.38;;;0.30;;
26858;SDS011;14429;48.346;16.338;2023-08-06T00:58:44;0.50;;;0.20;;
26858;SDS011;14429;48.346;16.338;2023-08-06T01:01:10;0.20;;;0.20;;
26858;SDS011;14429;48.346;16.338;2023-08-06T01:03:35;0.68;;;0.40;;
26858;SDS011;14429;48.346;16.338;2023-08-06T01:06:01;0.60;;;0.60;;
26858;SDS011;14429;48.346;16.338;2023-08-06T01:08:30;0.45;;;0.45;;
26858;SDS011;14429;48.346;16.338;2023-08-06T01:11:10;0.35;;;0.35;;
26858;SDS011;14429;48.346;16.338;2023-08-06T01:13:46;2.70;;;0.57;;
26858;SDS011;14429;48.346;16.338;2023-08-06T01:16:13;0.60;;;0.60;;
26858;SDS011;14429;48.346;16.338;2023-08-06T01:18:40;0.30;;;0.30;;
26858;SDS011;14429;48.346;16.338;2023-08-06T01:21:07;0.20;;;0.20;;
26858;SDS011;14429;48.346;16.338;2023-08-06T01:23:32;0.50;;;0.50;;
26858;SDS011;14429;48.346;16.338;2023-08-06T01:26:00;0.40;;;0.40;;
26858;SDS011;14429;48.346;16.338;2023-08-06T01:28:37;0.30;;;0.25;;
26858;SDS011;14429;48.346;16.338;2023-08-06T01:31:07;0.30;;;0.30;;
26858;SDS011;14429;48.346;16.338;2023-08-06T01:33:36;0.20;;;0.20;;
26858;SDS011;14429;48.346;16.338;2023-08-06T01:36:08;0.20;;;0.20;;
26858;SDS011;14429;48.346;16.338;2023-08-06T01:38:34;0.60;;;0.60;;
26858;SDS011;14429;48.346;16.338;2023-08-06T01:41:00;0.65;;;0.43;;
26858;SDS011;14429;48.346;16.338;2023-08-06T01:43:25;0.47;;;0.47;;
26858;SDS011;14429;48.346;16.338;2023-08-06T01:45:50;0.20;;;0.20;;
26858;SDS011;14429;48.346;16.338;2023-08-06T01:48:16;0.50;;;0.40;;
26858;SDS011;14429;48.346;16.338;2023-08-06T01:50:41;0.25;;;0.25;;
26858;SDS011;14429;48.346;16.338;2023-08-06T01:53:08;0.22;;;0.22;;
26858;SDS011;14429;48.346;16.338;2023-08-06T01:55:33;0.40;;;0.40;;
26858;SDS011;14429;48.346;16.338;2023-08-06T01:57:59;0.40;;;0.40;;
26858;SDS011;14429;48.346;16.338;2023-08-06T02:00:24;0.35;;;0.30;;
26858;SDS011;14429;48.346;16.338;2023-08-06T02:02:50;0.30;;;0.30;;
26858;SDS011;14429;48.346;16.338;2023-08-06T02:05:15;0.47;;;0.40;;
26858;SDS011;14429;48.346;16.338;2023-08-06T02:07:40;0.20;;;0.20;;
26858;SDS011;14429;48.346;16.338;2023-08-06T02:10:08;0.50;;;0.50;;
26858;SDS011;14429;48.346;16.338;2023-08-06T02:12:33;0.20;;;0.20;;
26858;SDS011;14429;48.346;16.338;2023-08-06T02:14:58;0.40;;;0.40;;
26858;SDS011;14429;48.346;16.338;2023-08-06T02:17:24;0.30;;;0.30;;
26858;SDS011;14429;48.346;16.338;2023-08-06T02:19:49;0.20;;;0.20;;
26858;SDS011;14429;48.346;16.338;2023-08-06T02:22:15;0.40;;;0.40;;
26858;SDS011;14429;48.346;16.338;2023-08-06T02:24:40;0.22;;;0.22;;
26858;SDS011;14429;48.346;16.338;2023-08-06T02:27:07;0.30;;;0.30;;
26858;SDS011;14429;48.346;16.338;2023-08-06T02:29:32;0.40;;;0.25;;
26858;SDS011;14429;48.346;16.338;2023-08-06T02:31:58;0.22;;;0.22;;
26858;SDS011;14429;48.346;16.338;2023-08-06T02:34:24;0.25;;;0.25;;
26858;SDS011;14429;48.346;16.338;2023-08-06T02:36:49;0.32;;;0.20;;
26858;SDS011;14429;48.346;16.338;2023-08-06T02:39:15;0.40;;;0.40;;
26858;SDS011;14429;48.346;16.338;2023-08-06T02:41:40;0.30;;;0.30;;
26858;SDS011;14429;48.346;16.338;2023-08-06T02:44:07;0.52;;;0.45;;
26858;SDS011;14429;48.346;16.338;2023-08-06T02:46:32;0.13;;;0.13;;
26858;SDS011;14429;48.346;16.338;2023-08-06T02:48:58;0.20;;;0.20;;
26858;SDS011;14429;48.346;16.338;2023-08-06T02:51:23;0.40;;;0.40;;
26858;SDS011;14429;48.346;16.338;2023-08-06T02:53:48;0.30;;;0.30;;
26858;SDS011;14429;48.346;16.338;2023-08-06T02:56:14;0.40;;;0.40;;
26858;SDS011;14429;48.346;16.338;2023-08-06T02:58:39;0.80;;;0.47;;
26858;SDS011;14429;48.346;16.338;2023-08-06T03:01:06;0.17;;;0.17;;
26858;SDS011;14429;48.346;16.338;2023-08-06T03:03:32;0.47;;;0.40;;
26858;SDS011;14429;48.346;16.338;2023-08-06T03:05:58;0.30;;;0.30;;
26858;SDS011;14429;48.346;16.338;2023-08-06T03:08:23;0.50;;;0.40;;
26858;SDS011;14429;48.346;16.338;2023-08-06T03:10:49;0.30;;;0.30;;
26858;SDS011;14429;48.346;16.338;2023-08-06T03:13:14;0.47;;;0.40;;
26858;SDS011;14429;48.346;16.338;2023-08-06T03:15:41;0.40;;;0.40;;
26858;SDS011;14429;48.346;16.338;2023-08-06T03:18:08;0.32;;;0.30;;
26858;SDS011;14429;48.346;16.338;2023-08-06T03:20:33;0.68;;;0.38;;
26858;SDS011;14429;48.346;16.338;2023-08-06T03:22:58;0.38;;;0.38;;
26858;SDS011;14429;48.346;16.338;2023-08-06T03:25:24;0.43;;;0.40;;
26858;SDS011;14429;48.346;16.338;2023-08-06T03:27:49;0.47;;;0.40;;
26858;SDS011;14429;48.346;16.338;2023-08-06T03:30:14;1.70;;;0.40;;
26858;SDS011;14429;48.346;16.338;2023-08-06T03:32:40;0.30;;;0.30;;
26858;SDS011;14429;48.346;16.338;2023-08-06T03:35:07;0.40;;;0.30;;
26858;SDS011;14429;48.346;16.338;2023-08-06T03:37:33;0.20;;;0.20;;
26858;SDS011;14429;48.346;16.338;2023-08-06T03:39:58;0.25;;;0.25;;
26858;SDS011;14429;48.346;16.338;2023-08-06T03:42:23;0.32;;;0.32;;
26858;SDS011;14429;48.346;16.338;2023-08-06T03:44:49;0.40;;;0.40;;
26858;SDS011;14429;48.346;16.338;2023-08-06T03:47:14;0.47;;;0.40;;
26858;SDS011;14429;48.346;16.338;2023-08-06T03:49:40;0.45;;;0.45;;
26858;SDS011;14429;48.346;16.338;2023-08-06T03:52:07;0.50;;;0.50;;
26858;SDS011;14429;48.346;16.338;2023-08-06T03:54:32;0.28;;;0.28;;
26858;SDS011;14429;48.346;16.338;2023-08-06T03:56:58;0.90;;;0.73;;
26858;SDS011;14429;48.346;16.338;2023-08-06T03:59:23;0.30;;;0.30;;
26858;SDS011;14429;48.346;16.338;2023-08-06T04:01:48;0.60;;;0.60;;
26858;SDS011;14429;48.346;16.338;2023-08-06T04:04:14;0.60;;;0.60;;
26858;SDS011;14429;48.346;16.338;2023-08-06T04:06:39;0.17;;;0.17;;
26858;SDS011;14429;48.346;16.338;2023-08-06T04:09:06;1.45;;;0.82;;
26858;SDS011;14429;48.346;16.338;2023-08-06T04:11:32;1.35;;;0.43;;
26858;SDS011;14429;48.346;16.338;2023-08-06T04:13:57;0.75;;;0.40;;
26858;SDS011;14429;48.346;16.338;2023-08-06T04:16:22;0.22;;;0.22;;
26858;SDS011;14429;48.346;16.338;2023-08-06T04:18:48;0.50;;;0.50;;
26858;SDS011;14429;48.346;16.338;2023-08-06T04:21:13;1.30;;;0.50;;
26858;SDS011;14429;48.346;16.338;2023-08-06T04:23:39;0.30;;;0.30;;
26858;SDS011;14429;48.346;16.338;2023-08-06T04:26:05;0.50;;;0.50;;
26858;SDS011;14429;48.346;16.338;2023-08-06T04:28:31;0.40;;;0.40;;
26858;SDS011;14429;48.346;16.338;2023-08-06T04:30:56;0.20;;;0.20;;
26858;SDS011;14429;48.346;16.338;2023-08-06T04:33:21;0.40;;;0.40;;
26858;SDS011;14429;48.346;16.338;2023-08-06T04:35:47;0.60;;;0.60;;
26858;SDS011;14429;48.346;16.338;2023-08-06T04:38:12;0.50;;;0.50;;
26858;SDS011;14429;48.346;16.338;2023-08-06T04:40:38;0.45;;;0.45;;
26858;SDS011;14429;48.346;16.338;2023-08-06T04:43:04;0.65;;;0.32;;
26858;SDS011;14429;48.346;16.338;2023-08-06T04:45:30;0.40;;;0.40;;
26858;SDS011;14429;48.346;16.338;2023-08-06T04:47:55;1.98;;;0.50;;
26858;SDS011;14429;48.346;16.338;2023-08-06T04:50:21;0.63;;;0.50;;
26858;SDS011;14429;48.346;16.338;2023-08-06T04:52:46;0.40;;;0.40;;
26858;SDS011;14429;48.346;16.338;2023-08-06T04:55:11;0.63;;;0.55;;
26858;SDS011;14429;48.346;16.338;2023-08-06T04:57:37;0.43;;;0.40;;
26858;SDS011;14429;48.346;16.338;2023-08-06T05:00:04;0.45;;;0.40;;
26858;SDS011;14429;48.346;16.338;2023-08-06T05:02:30;0.75;;;0.70;;
26858;SDS011;14429;48.346;16.338;2023-08-06T05:04:56;0.75;;;0.52;;
26858;SDS011;14429;48.346;16.338;2023-08-06T05:07:21;0.63;;;0.50;;
26858;SDS011;14429;48.346;16.338;2023-08-06T05:09:47;0.52;;;0.50;;
26858;SDS011;14429;48.346;16.338;2023-08-06T05:12:12;0.88;;;0.60;;
26858;SDS011;14429;48.346;16.338;2023-08-06T05:14:37;0.65;;;0.55;;
26858;SDS011;14429;48.346;16.338;2023-08-06T05:17:04;0.57;;;0.52;;
26858;SDS011;14429;48.346;16.338;2023-08-06T05:19:30;0.57;;;0.55;;
26858;SDS011;14429;48.346;16.338;2023-08-06T05:21:55;0.47;;;0.47;;
26858;SDS011;14429;48.346;16.338;2023-08-06T05:24:21;0.75;;;0.60;;
26858;SDS011;14429;48.346;16.338;2023-08-06T05:26:46;0.80;;;0.50;;
26858;SDS011;14429;48.346;16.338;2023-08-06T05:29:11;0.35;;;0.35;;
26858;SDS011;14429;48.346;16.338;2023-08-06T05:31:37;0.40;;;0.40;;
26858;SDS011;14429;48.346;16.338;2023-08-06T05:34:04;3.80;;;0.63;;
26858;SDS011;14429;48.346;16.338;2023-08-06T05:36:29;0.47;;;0.47;;
26858;SDS011;14429;48.346;16.338;2023-08-06T05:38:54;3.92;;;0.45;;
26858;SDS011;14429;48.346;16.338;2023-08-06T05:41:20;0.40;;;0.40;;
26858;SDS011;14429;48.346;16.338;2023-08-06T05:43:45;0.63;;;0.63;;
26858;SDS011;14429;48.346;16.338;2023-08-06T05:46:11;0.52;;;0.52;;
26858;SDS011;14429;48.346;16.338;2023-08-06T05:48:36;0.45;;;0.45;;
26858;SDS011;14429;48.346;16.338;2023-08-06T05:51:03;0.70;;;0.50;;
26858;SDS011;14429;48.346;16.338;2023-08-06T05:53:28;0.60;;;0.50;;
26858;SDS011;14429;48.346;16.338;2023-08-06T05:55:54;1.10;;;0.50;;
26858;SDS011;14429;48.346;16.338;2023-08-06T05:58:19;0.57;;;0.55;;
26858;SDS011;14429;48.346;16.338;2023-08-06T06:00:44;1.05;;;0.50;;
26858;SDS011;14429;48.346;16.338;2023-08-06T06:03:10;0.57;;;0.57;;
26858;SDS011;14429;48.346;16.338;2023-08-06T06:05:37;0.60;;;0.60;;
26858;SDS011;14429;48.346;16.338;2023-08-06T06:08:04;0.22;;;0.22;;
26858;SDS011;14429;48.346;16.338;2023-08-06T06:10:29;0.73;;;0.70;;
26858;SDS011;14429;48.346;16.338;2023-08-06T06:12:55;0.55;;;0.38;;
26858;SDS011;14429;48.346;16.338;2023-08-06T06:15:21;0.73;;;0.52;;
26858;SDS011;14429;48.346;16.338;2023-08-06T06:17:46;0.77;;;0.70;;
26858;SDS011;14429;48.346;16.338;2023-08-06T06:20:12;0.35;;;0.35;;
26858;SDS011;14429;48.346;16.338;2023-08-06T06:22:37;0.57;;;0.57;;
26858;SDS011;14429;48.346;16.338;2023-08-06T06:25:05;1.45;;;0.57;;
26858;SDS011;14429;48.346;16.338;2023-08-06T06:27:31;0.47;;;0.47;;
26858;SDS011;14429;48.346;16.338;2023-08-06T06:29:56;0.40;;;0.40;;
26858;SDS011;14429;48.346;16.338;2023-08-06T06:32:22;0.85;;;0.50;;
26858;SDS011;14429;48.346;16.338;2023-08-06T06:34:47;0.73;;;0.47;;
26858;SDS011;14429;48.346;16.338;2023-08-06T06:37:12;0.38;;;0.35;;
26858;SDS011;14429;48.346;16.338;2023-08-06T06:39:38;0.95;;;0.60;;
26858;SDS011;14429;48.346;16.338;2023-08-06T06:42:05;0.90;;;0.60;;
26858;SDS011;14429;48.346;16.338;2023-08-06T06:44:31;1.40;;;0.60;;
26858;SDS011;14429;48.346;16.338;2023-08-06T06:46:56;1.13;;;0.40;;
26858;SDS011;14429;48.346;16.338;2023-08-06T06:49:21;0.40;;;0.40;;
26858;SDS011;14429;48.346;16.338;2023-08-06T06:51:47;0.77;;;0.40;;
26858;SDS011;14429;48.346;16.338;2023-08-06T06:54:12;0.75;;;0.55;;
26858;SDS011;14429;48.346;16.338;2023-08-06T06:56:38;0.57;;;0.45;;
26858;SDS011;14429;48.346;16.338;2023-08-06T06:59:04;0.50;;;0.50;;
26858;SDS011;14429;48.346;16.338;2023-08-06T07:01:30;0.60;;;0.50;;
26858;SDS011;14429;48.346;16.338;2023-08-06T07:03:55;0.30;;;0.30;;
26858;SDS011;14429;48.346;16.338;2023-08-06T07:06:21;0.20;;;0.20;;
26858;SDS011;14429;48.346;16.338;2023-08-06T07:08:46;1.15;;;0.43;;
26858;SDS011;14429;48.346;16.338;2023-08-06T07:11:11;0.45;;;0.38;;
26858;SDS011;14429;48.346;16.338;2023-08-06T07:13:37;0.50;;;0.50;;
26858;SDS011;14429;48.346;16.338;2023-08-06T07:16:04;1.10;;;0.60;;
26858;SDS011;14429;48.346;16.338;2023-08-06T07:18:29;0.63;;;0.60;;
26858;SDS011;14429;48.346;16.338;2023-08-06T07:20:55;0.70;;;0.50;;
26858;SDS011;14429;48.346;16.338;2023-08-06T07:23:20;0.65;;;0.40;;
26858;SDS011;14429;48.346;16.338;2023-08-06T07:25:48;0.50;;;0.50;;
26858;SDS011;14429;48.346;16.338;2023-08-06T07:28:13;1.77;;;0.30;;
26858;SDS011;14429;48.346;16.338;2023-08-06T07:30:39;0.57;;;0.45;;
26858;SDS011;14429;48.346;16.338;2023-08-06T07:33:06;0.40;;;0.40;;
26858;SDS011;14429;48.346;16.338;2023-08-06T07:35:31;2.25;;;0.52;;
26858;SDS011;14429;48.346;16.338;2023-08-06T07:37:57;0.50;;;0.50;;
26858;SDS011;14429;48.346;16.338;2023-08-06T07:40:22;0.63;;;0.52;;
26858;SDS011;14429;48.346;16.338;2023-08-06T07:42:47;0.80;;;0.50;;
26858;SDS011;14429;48.346;16.338;2023-08-06T07:45:13;1.08;;;0.47;;
26858;SDS011;14429;48.346;16.338;2023-08-06T07:47:39;0.47;;;0.40;;
26858;SDS011;14429;48.346;16.338;2023-08-06T07:50:06;0.55;;;0.40;;
26858;SDS011;14429;48.346;16.338;2023-08-06T07:52:32;1.17;;;0.80;;
26858;SDS011;14429;48.346;16.338;2023-08-06T07:54:58;0.52;;;0.50;;
26858;SDS011;14429;48.346;16.338;2023-08-06T07:57:23;0.55;;;0.50;;
26858;SDS011;14429;48.346;16.338;2023-08-06T07:59:48;0.70;;;0.65;;
26858;SDS011;14429;48.346;16.338;2023-08-06T08:02:14;0.40;;;0.40;;
26858;SDS011;14429;48.346;16.338;2023-08-06T08:04:39;0.52;;;0.47;;
26858;SDS011;14429;48.346;16.338;2023-08-06T08:07:06;0.50;;;0.50;;
26858;SDS011;14429;48.346;16.338;2023-08-06T08:09:32;0.40;;;0.40;;
26858;SDS011;14429;48.346;16.338;2023-08-06T08:11:57;1.33;;;0.50;;
26858;SDS011;14429;48.346;16.338;2023-08-06T08:14:23;1.35;;;0.70;;
26858;SDS011;14429;48.346;16.338;2023-08-06T08:16:48;0.52;;;0.40;;
26858;SDS011;14429;48.346;16.338;2023-08-06T08:19:14;0.93;;;0.80;;
26858;SDS011;14429;48.346;16.338;2023-08-06T08:21:39;0.30;;;0.30;;
26858;SDS011;14429;48.346;16.338;2023-08-06T08:24:07;0.50;;;0.50;;
26858;SDS011;14429;48.346;16.338;2023-08-06T08:26:32;0.60;;;0.60;;
26858;SDS011;14429;48.346;16.338;2023-08-06T08:28:58;0.93;;;0.52;;
26858;SDS011;14429;48.346;16.338;2023-08-06T08:31:23;0.40;;;0.40;;
26858;SDS011;14429;48.346;16.338;2023-08-06T08:33:49;0.38;;;0.35;;
26858;SDS011;14429;48.346;16.338;2023-08-06T08:36:14;0.82;;;0.57;;
26858;SDS011;14429;48.346;16.338;2023-08-06T08:38:40;0.40;;;0.40;;
26858;SDS011;14429;48.346;16.338;2023-08-06T08:41:06;0.28;;;0.28;;
26858;SDS011;14429;48.346;16.338;2023-08-06T08:43:35;4.22;;;0.60;;
26858;SDS011;14429;48.346;16.338;2023-08-06T08:46:01;1.35;;;0.60;;
26858;SDS011;14429;48.346;16.338;2023-08-06T08:48:28;0.40;;;0.40;;
26858;SDS011;14429;48.346;16.338;2023-08-06T08:50:54;0.70;;;0.68;;
26858;SDS011;14429;48.346;16.338;2023-08-06T08:53:21;0.45;;;0.45;;
26858;SDS011;14429;48.346;16.338;2023-08-06T08:55:47;1.40;;;0.50;;
26858;SDS011;14429;48.346;16.338;2023-08-06T08:58:14;0.85;;;0.70;;
26858;SDS011;14429;48.346;16.338;2023-08-06T09:00:40;0.43;;;0.43;;
26858;SDS011;14429;48.346;16.338;2023-08-06T09:03:07;0.75;;;0.63;;
26858;SDS011;14429;48.346;16.338;2023-08-06T09:05:32;0.75;;;0.55;;
26858;SDS011;14429;48.346;16.338;2023-08-06T09:08:00;0.73;;;0.73;;
26858;SDS011;14429;48.346;16.338;2023-08-06T09:10:27;0.82;;;0.60;;
26858;SDS011;14429;48.346;16.338;2023-08-06T09:12:53;0.63;;;0.50;;
26858;SDS011;14429;48.346;16.338;2023-08-06T09:15:22;0.68;;;0.55;;
26858;SDS011;14429;48.346;16.338;2023-08-06T09:17:49;0.50;;;0.47;;
26858;SDS011;14429;48.346;16.338;2023-08-06T09:20:14;0.50;;;0.50;;
26858;SDS011;14429;48.346;16.338;2023-08-06T09:22:41;1.92;;;0.50;;
26858;SDS011;14429;48.346;16.338;2023-08-06T09:25:07;0.50;;;0.50;;
26858;SDS011;14429;48.346;16.338;2023-08-06T09:27:32;0.40;;;0.40;;
26858;SDS011;14429;48.346;16.338;2023-08-06T09:29:58;0.73;;;0.50;;
26858;SDS011;14429;48.346;16.338;2023-08-06T09:32:25;0.82;;;0.80;;
26858;SDS011;14429;48.346;16.338;2023-08-06T09:34:54;0.75;;;0.75;;
26858;SDS011;14429;48.346;16.338;2023-08-06T09:37:21;0.60;;;0.52;;
26858;SDS011;14429;48.346;16.338;2023-08-06T09:39:46;0.85;;;0.52;;
26858;SDS011;14429;48.346;16.338;2023-08-06T09:42:14;0.47;;;0.47;;
26858;SDS011;14429;48.346;16.338;2023-08-06T09:44:40;1.10;;;0.55;;
26858;SDS011;14429;48.346;16.338;2023-08-06T09:47:05;0.40;;;0.40;;
26858;SDS011;14429;48.346;16.338;2023-08-06T09:49:41;0.40;;;0.40;;
26858;SDS011;14429;48.346;16.338;2023-08-06T09:52:08;0.65;;;0.50;;
26858;SDS011;14429;48.346;16.338;2023-08-06T09:54:36;1.05;;;0.70;;
26858;SDS011;14429;48.346;16.338;2023-08-06T09:57:02;0.63;;;0.60;;
26858;SDS011;14429;48.346;16.338;2023-08-06T09:59:28;0.98;;;0.60;;
26858;SDS011;14429;48.346;16.338;2023-08-06T10:01:54;0.50;;;0.50;;
26858;SDS011;14429;48.346;16.338;2023-08-06T10:04:20;0.30;;;0.30;;
26858;SDS011;14429;48.346;16.338;2023-08-06T10:06:47;0.77;;;0.73;;
26858;SDS011;14429;48.346;16.338;2023-08-06T10:09:12;0.43;;;0.28;;
26858;SDS011;14429;48.346;16.338;2023-08-06T10:11:38;1.08;;;0.70;;
26858;SDS011;14429;48.346;16.338;2023-08-06T10:14:05;0.50;;;0.40;;
26858;SDS011;14429;48.346;16.338;2023-08-06T10:16:33;1.42;;;0.70;;
26858;SDS011;14429;48.346;16.338;2023-08-06T10:19:00;0.90;;;0.65;;
26858;SDS011;14429;48.346;16.338;2023-08-06T10:21:26;0.60;;;0.50;;
26858;SDS011;14429;48.346;16.338;2023-08-06T10:23:54;0.68;;;0.50;;
26858;SDS011;14429;48.346;16.338;2023-08-06T10:26:20;0.60;;;0.60;;
26858;SDS011;14429;48.346;16.338;2023-08-06T10:28:45;0.50;;;0.50;;
26858;SDS011;14429;48.346;16.338;2023-08-06T10:31:11;0.50;;;0.50;;
26858;SDS011;14429;48.346;16.338;2023-08-06T10:33:40;0.98;;;0.73;;
26858;SDS011;14429;48.346;16.338;2023-08-06T10:36:07;0.45;;;0.45;;
26858;SDS011;14429;48.346;16.338;2023-08-06T10:38:34;0.60;;;0.50;;
26858;SDS011;14429;48.346;16.338;2023-08-06T10:41:02;0.70;;;0.70;;
26858;SDS011;14429;48.346;16.338;2023-08-06T10:43:29;0.60;;;0.57;;
26858;SDS011;14429;48.346;16.338;2023-08-06T10:45:55;0.35;;;0.35;;
26858;SDS011;14429;48.346;16.338;2023-08-06T10:48:32;1.10;;;0.75;;
26858;SDS011;14429;48.346;16.338;2023-08-06T10:50:59;1.00;;;0.73;;
26858;SDS011;14429;48.346;16.338;2023-08-06T10:53:26;0.40;;;0.40;;
26858;SDS011;14429;48.346;16.338;2023-08-06T10:55:51;0.75;;;0.70;;
26858;SDS011;14429;48.346;16.338;2023-08-06T10:58:18;0.50;;;0.50;;
26858;SDS011;14429;48.346;16.338;2023-08-06T11:00:44;0.57;;;0.55;;
26858;SDS011;14429;48.346;16.338;2023-08-06T11:03:09;0.77;;;0.70;;
26858;SDS011;14429;48.346;16.338;2023-08-06T11:05:35;1.00;;;0.52;;
26858;SDS011;14429;48.346;16.338;2023-08-06T11:08:01;0.55;;;0.55;;
26858;SDS011;14429;48.346;16.338;2023-08-06T11:10:26;0.95;;;0.60;;
26858;SDS011;14429;48.346;16.338;2023-08-06T11:12:52;0.50;;;0.50;;
26858;SDS011;14429;48.346;16.338;2023-08-06T11:15:19;0.60;;;0.60;;
26858;SDS011;14429;48.346;16.338;2023-08-06T11:17:45;0.90;;;0.77;;
26858;SDS011;14429;48.346;16.338;2023-08-06T11:20:11;1.52;;;0.93;;
26858;SDS011;14429;48.346;16.338;2023-08-06T11:22:37;0.90;;;0.65;;
26858;SDS011;14429;48.346;16.338;2023-08-06T11:25:02;0.60;;;0.60;;
26858;SDS011;14429;48.346;16.338;2023-08-06T11:27:28;0.57;;;0.52;;
26858;SDS011;14429;48.346;16.338;2023-08-06T11:29:54;0.60;;;0.60;;
26858;SDS011;14429;48.346;16.338;2023-08-06T11:32:21;0.65;;;0.57;;
26858;SDS011;14429;48.346;16.338;2023-08-06T11:34:46;1.05;;;0.80;;
26858;SDS011;14429;48.346;16.338;2023-08-06T11:37:13;0.60;;;0.60;;
26858;SDS011;14429;48.346;16.338;2023-08-06T11:39:38;1.05;;;0.70;;
26858;SDS011;14429;48.346;16.338;2023-08-06T11:42:09;0.98;;;0.50;;
26858;SDS011;14429;48.346;16.338;2023-08-06T11:44:36;0.65;;;0.47;;
26858;SDS011;14429;48.346;16.338;2023-08-06T11:47:01;0.57;;;0.57;;
26858;SDS011;14429;48.346;16.338;2023-08-06T11:49:40;1.75;;;0.75;;
26858;SDS011;14429;48.346;16.338;2023-08-06T11:52:16;0.98;;;0.80;;
26858;SDS011;14429;48.346;16.338;2023-08-06T11:54:43;0.60;;;0.60;;
26858;SDS011;14429;48.346;16.338;2023-08-06T11:57:08;0.45;;;0.30;;
26858;SDS011;14429;48.346;16.338;2023-08-06T11:59:34;0.85;;;0.60;;
26858;SDS011;14429;48.346;16.338;2023-08-06T12:02:00;0.98;;;0.90;;
26858;SDS011;14429;48.346;16.338;2023-08-06T12:04:26;0.50;;;0.50;;
26858;SDS011;14429;48.346;16.338;2023-08-06T12:06:53;1.02;;;0.70;;
26858;SDS011;14429;48.346;16.338;2023-08-06T12:09:18;0.60;;;0.60;;
26858;SDS011;14429;48.346;16.338;2023-08-06T12:11:44;1.08;;;0.80;;
26858;SDS011;14429;48.346;16.338;2023-08-06T12:14:09;1.08;;;0.82;;
26858;SDS011;14429;48.346;16.338;2023-08-06T12:16:35;1.02;;;0.52;;
26858;SDS011;14429;48.346;16.338;2023-08-06T12:19:01;0.82;;;0.70;;
26858;SDS011;14429;48.346;16.338;2023-08-06T12:21:26;0.50;;;0.50;;
26858;SDS011;14429;48.346;16.338;2023-08-06T12:23:53;0.90;;;0.90;;
26858;SDS011;14429;48.346;16.338;2023-08-06T12:26:18;0.95;;;0.52;;
26858;SDS011;14429;48.346;16.338;2023-08-06T12:28:44;0.60;;;0.55;;
26858;SDS011;14429;48.346;16.338;2023-08-06T12:31:09;0.60;;;0.60;;
26858;SDS011;14429;48.346;16.338;2023-08-06T12:33:34;0.63;;;0.50;;
26858;SDS011;14429;48.346;16.338;2023-08-06T12:36:00;0.85;;;0.43;;
26858;SDS011;14429;48.346;16.338;2023-08-06T12:38:25;1.75;;;0.70;;
26858;SDS011;14429;48.346;16.338;2023-08-06T12:40:52;1.10;;;0.80;;
26858;SDS011;14429;48.346;16.338;2023-08-06T12:43:17;1.05;;;0.80;;
26858;SDS011;14429;48.346;16.338;2023-08-06T12:45:43;0.65;;;0.65;;
26858;SDS011;14429;48.346;16.338;2023-08-06T12:48:08;1.08;;;0.60;;
26858;SDS011;14429;48.346;16.338;2023-08-06T12:50:34;0.95;;;0.85;;
26858;SDS011;14429;48.346;16.338;2023-08-06T12:52:59;0.98;;;0.60;;
26858;SDS011;14429;48.346;16.338;2023-08-06T12:55:24;1.88;;;0.98;;
26858;SDS011;14429;48.346;16.338;2023-08-06T12:57:51;1.45;;;1.35;;
26858;SDS011;14429;48.346;16.338;2023-08-06T13:00:17;2.33;;;1.48;;
26858;SDS011;14429;48.346;16.338;2023-08-06T13:02:42;1.50;;;1.40;;
26858;SDS011;14429;48.346;16.338;2023-08-06T13:05:07;1.45;;;1.20;;
26858;SDS011;14429;48.346;16.338;2023-08-06T13:07:33;1.67;;;1.00;;
26858;SDS011;14429;48.346;16.338;2023-08-06T13:09:58;2.17;;;1.40;;
26858;SDS011;14429;48.346;16.338;2023-08-06T13:12:24;1.90;;;1.15;;
26858;SDS011;14429;48.346;16.338;2023-08-06T13:14:50;1.65;;;1.20;;
26858;SDS011;14429;48.346;16.338;2023-08-06T13:17:16;1.30;;;1.10;;
26858;SDS011;14429;48.346;16.338;2023-08-06T13:19:41;1.20;;;0.95;;
26858;SDS011;14429;48.346;16.338;2023-08-06T13:22:06;1.63;;;1.13;;
26858;SDS011;14429;48.346;16.338;2023-08-06T13:24:32;1.30;;;1.15;;
26858;SDS011;14429;48.346;16.338;2023-08-06T13:26:57;4.10;;;1.23;;
26858;SDS011;14429;48.346;16.338;2023-08-06T13:29:24;1.17;;;0.98;;
26858;SDS011;14429;48.346;16.338;2023-08-06T13:31:51;1.10;;;1.00;;
26858;SDS011;14429;48.346;16.338;2023-08-06T13:34:17;1.20;;;1.10;;
26858;SDS011;14429;48.346;16.338;2023-08-06T13:36:42;1.48;;;1.38;;
26858;SDS011;14429;48.346;16.338;2023-08-06T13:39:07;2.42;;;1.30;;
26858;SDS011;14429;48.346;16.338;2023-08-06T13:41:33;1.50;;;1.00;;
26858;SDS011;14429;48.346;16.338;2023-08-06T13:43:58;1.95;;;1.10;;
26858;SDS011;14429;48.346;16.338;2023-08-06T13:46:24;1.20;;;1.00;;
26858;SDS011;14429;48.346;16.338;2023-08-06T13:48:50;1.20;;;1.10;;
26858;SDS011;14429;48.346;16.338;2023-08-06T13:51:16;1.45;;;0.90;;
26858;SDS011;14429;48.346;16.338;2023-08-06T13:53:42;1.67;;;1.10;;
26858;SDS011;14429;48.346;16.338;2023-08-06T13:56:08;1.58;;;1.30;;
26858;SDS011;14429;48.346;16.338;2023-08-06T13:58:34;1.48;;;0.90;;
26858;SDS011;14429;48.346;16.338;2023-08-06T14:00:59;1.08;;;0.98;;
26858;SDS011;14429;48.346;16.338;2023-08-06T14:03:25;2.55;;;1.30;;
26858;SDS011;14429;48.346;16.338;2023-08-06T14:05:51;2.35;;;1.08;;
26858;SDS011;14429;48.346;16.338;2023-08-06T14:08:17;1.58;;;1.13;;
26858;SDS011;14429;48.346;16.338;2023-08-06T14:10:42;0.95;;;0.95;;
26858;SDS011;14429;48.346;16.338;2023-08-06T14:13:08;0.82;;;0.80;;
26858;SDS011;14429;48.346;16.338;2023-08-06T14:15:33;1.35;;;1.00;;
26858;SDS011;14429;48.346;16.338;2023-08-06T14:17:58;2.00;;;1.23;;
26858;SDS011;14429;48.346;16.338;2023-08-06T14:20:24;1.27;;;1.17;;
26858;SDS011;14429;48.346;16.338;2023-08-06T14:22:50;1.27;;;1.10;;
26858;SDS011;14429;48.346;16.338;2023-08-06T14:25:16;2.58;;;1.27;;